createdAt,value
2022-08-16T00:01:11.775Z,47.02
2022-08-16T00:03:38.726Z,46.43
2022-08-16T00:06:07.732Z,46.50
2022-08-16T00:08:37.660Z,45.81
2022-08-16T00:11:15.419Z,45.58
2022-08-16T00:13:53.037Z,44.97
2022-08-16T00:17:01.502Z,44.67
2022-08-16T00:19:16.831Z,44.40
2022-08-16T00:21:44.300Z,44.76
2022-08-16T00:24:12.983Z,44.98
2022-08-16T00:26:45.008Z,44.79
2022-08-16T00:29:16.825Z,44.70
2022-08-16T00:31:59.995Z,44.57
2022-08-16T00:34:44.672Z,44.67
2022-08-16T00:37:17.326Z,44.21
2022-08-16T00:39:47.175Z,44.32
2022-08-16T00:42:16.319Z,44.29
2022-08-16T00:45:30.057Z,43.89
2022-08-16T00:48:28.742Z,44.09
2022-08-16T00:50:55.513Z,44.22
2022-08-16T00:53:22.235Z,44.34
2022-08-16T00:55:53.047Z,44.58
2022-08-16T00:58:32.217Z,44.86
2022-08-16T01:01:02.257Z,44.99
2022-08-16T01:03:31.768Z,44.72
2022-08-16T01:06:40.650Z,44.70
2022-08-16T01:08:54.750Z,45.00
2022-08-16T01:11:23.901Z,45.76
2022-08-16T01:13:56.686Z,45.88
2022-08-16T01:16:26.562Z,45.67
2022-08-16T01:19:02.838Z,45.22
2022-08-16T01:21:56.066Z,45.41
2022-08-16T01:24:55.383Z,45.52
2022-08-16T01:27:29.502Z,45.16
2022-08-16T01:30:19.399Z,45.45
2022-08-16T01:32:59.589Z,45.74
2022-08-16T01:35:45.667Z,45.77
2022-08-16T01:38:29.960Z,45.72
2022-08-16T01:41:02.189Z,46.11
2022-08-16T01:43:31.119Z,45.94
2022-08-16T01:46:37.134Z,46.03
2022-08-16T01:48:53.185Z,46.15
2022-08-16T01:51:22.001Z,46.01
2022-08-16T01:53:55.487Z,46.30
2022-08-16T01:56:24.805Z,46.15
2022-08-16T01:58:54.676Z,45.96
2022-08-16T02:01:21.606Z,45.94
2022-08-16T02:03:50.574Z,46.55
2022-08-16T02:06:33.899Z,46.32
2022-08-16T02:09:02.420Z,46.34
2022-08-16T02:11:47.930Z,46.58
2022-08-16T02:14:18.666Z,46.78
2022-08-16T02:16:48.803Z,47.07
2022-08-16T02:19:16.726Z,47.19
2022-08-16T02:22:08.477Z,46.91
2022-08-16T02:24:40.926Z,46.80
2022-08-16T02:27:10.270Z,46.93
2022-08-16T02:29:38.316Z,46.68
2022-08-16T02:32:48.858Z,47.09
2022-08-16T02:34:59.136Z,47.35
2022-08-16T02:37:44.759Z,47.41
2022-08-16T02:40:16.393Z,47.31
2022-08-16T02:42:44.972Z,47.36
2022-08-16T02:45:12.575Z,46.99
2022-08-16T02:48:00.384Z,47.41
2022-08-16T02:50:55.564Z,47.43
2022-08-16T02:53:13.009Z,47.43
2022-08-16T02:55:40.679Z,47.54
2022-08-16T02:58:08.127Z,47.58
2022-08-16T03:00:36.169Z,47.92
2022-08-16T03:03:04.718Z,48.01
2022-08-16T03:05:37.120Z,48.05
2022-08-16T03:08:05.211Z,48.06
2022-08-16T03:10:51.911Z,47.77
2022-08-16T03:13:20.258Z,48.24
2022-08-16T03:15:49.578Z,48.17
2022-08-16T03:18:34.098Z,48.16
2022-08-16T03:21:01.420Z,48.44
2022-08-16T03:23:27.995Z,48.46
2022-08-16T03:26:02.662Z,48.28
2022-08-16T03:30:56.892Z,48.62
2022-08-16T03:33:23.496Z,48.52
2022-08-16T03:35:51.187Z,48.54
2022-08-16T03:38:32.399Z,48.30
2022-08-16T03:41:03.283Z,48.92
2022-08-16T03:43:51.457Z,48.68
2022-08-16T03:46:44.857Z,49.05
2022-08-16T03:49:05.556Z,49.25
2022-08-16T03:51:34.234Z,48.96
2022-08-16T03:54:01.681Z,48.99
2022-08-16T03:56:30.416Z,48.80
2022-08-16T03:58:58.354Z,49.37
2022-08-16T04:01:25.127Z,48.75
2022-08-16T04:03:56.048Z,49.07
2022-08-16T04:06:22.748Z,48.64
2022-08-16T04:08:49.675Z,48.80
2022-08-16T04:11:17.104Z,49.07
2022-08-16T04:14:32.425Z,49.21
2022-08-16T04:16:51.076Z,50.68
2022-08-16T04:19:17.732Z,52.20
2022-08-16T04:21:48.230Z,52.46
2022-08-16T04:24:14.896Z,53.22
2022-08-16T04:26:45.864Z,53.60
2022-08-16T04:29:16.235Z,52.99
2022-08-16T04:31:44.947Z,52.65
2022-08-16T04:34:12.176Z,51.82
2022-08-16T04:36:39.645Z,51.50
2022-08-16T04:39:06.172Z,50.89
2022-08-16T04:41:37.384Z,50.67
2022-08-16T04:44:32.966Z,50.30
2022-08-16T04:47:02.835Z,49.98
2022-08-16T04:49:43.958Z,49.66
2022-08-16T04:52:34.084Z,49.19
2022-08-16T04:54:59.680Z,49.39
2022-08-16T04:57:26.528Z,48.90
2022-08-16T04:59:57.017Z,49.30
2022-08-16T05:02:41.439Z,49.04
2022-08-16T05:05:17.833Z,48.73
2022-08-16T05:07:58.579Z,49.66
2022-08-16T05:10:29.600Z,48.78
2022-08-16T05:12:58.441Z,48.91
2022-08-16T05:15:25.595Z,48.12
2022-08-16T05:17:55.498Z,48.06
2022-08-16T05:20:35.287Z,48.09
2022-08-16T05:23:13.732Z,47.90
2022-08-16T05:25:48.366Z,47.85
2022-08-16T05:28:16.698Z,48.18
2022-08-16T05:30:43.373Z,48.03
2022-08-16T05:33:16.419Z,47.71
2022-08-16T05:35:43.911Z,47.50
2022-08-16T05:38:33.432Z,47.20
2022-08-16T05:41:07.010Z,47.82
2022-08-16T05:43:43.274Z,47.06
2022-08-16T05:46:30.423Z,47.38
2022-08-16T05:49:03.129Z,47.19
2022-08-16T05:51:36.910Z,47.47
2022-08-16T05:54:09.591Z,47.52
2022-08-16T05:56:57.567Z,46.96
2022-08-16T05:59:27.620Z,47.10
2022-08-16T06:01:54.923Z,46.63
2022-08-16T06:04:35.056Z,46.86
2022-08-16T06:07:07.096Z,46.51
2022-08-16T06:09:42.779Z,46.46
2022-08-16T06:12:12.756Z,45.15
2022-08-16T06:14:54.343Z,46.05
2022-08-16T06:17:21.770Z,45.78
2022-08-16T06:19:48.301Z,45.24
2022-08-16T06:22:37.366Z,44.64
2022-08-16T06:25:04.940Z,44.34
2022-08-16T06:27:39.502Z,43.80
2022-08-16T06:30:10.525Z,44.65
2022-08-16T06:32:42.908Z,44.54
2022-08-16T06:35:10.190Z,45.08
2022-08-16T06:37:38.131Z,46.02
2022-08-16T06:40:05.671Z,45.96
2022-08-16T06:42:47.623Z,45.23
2022-08-16T06:45:15.569Z,44.65
2022-08-16T06:47:52.922Z,44.09
2022-08-16T06:50:28.875Z,43.98
2022-08-16T06:53:19.762Z,44.34
2022-08-16T06:55:46.719Z,45.04
2022-08-16T06:58:21.910Z,44.76
2022-08-16T07:00:49.505Z,44.98
2022-08-16T07:03:27.572Z,46.68
2022-08-16T07:05:55.442Z,46.57
2022-08-16T07:08:22.170Z,47.06
2022-08-16T07:10:49.980Z,46.24
2022-08-16T07:13:26.681Z,46.81
2022-08-16T07:16:04.961Z,47.27
2022-08-16T07:18:32.094Z,46.55
2022-08-16T07:21:01.957Z,47.01
2022-08-16T07:23:39.127Z,46.68
2022-08-16T07:26:24.884Z,46.64
2022-08-16T07:28:52.545Z,46.40
2022-08-16T07:31:20.171Z,45.81
2022-08-16T07:33:52.867Z,45.74
2022-08-16T07:36:21.934Z,46.31
2022-08-16T07:38:49.299Z,46.93
2022-08-16T07:41:16.780Z,46.88
2022-08-16T07:43:43.529Z,46.61
2022-08-16T07:46:39.059Z,46.69
2022-08-16T07:49:02.579Z,46.71
2022-08-16T07:51:30.676Z,47.26
2022-08-16T07:54:02.343Z,47.36
2022-08-16T07:56:37.188Z,46.89
2022-08-16T07:59:05.470Z,46.13
2022-08-16T08:01:32.615Z,45.95
2022-08-16T08:03:59.169Z,45.49
2022-08-16T08:06:28.714Z,45.20
2022-08-16T08:08:57.558Z,45.27
2022-08-16T08:11:28.495Z,45.33
2022-08-16T08:13:57.493Z,45.56
2022-08-16T08:16:31.932Z,45.30
2022-08-16T08:19:01.156Z,45.29
2022-08-16T08:21:58.154Z,45.20
2022-08-16T08:24:19.033Z,44.88
2022-08-16T08:26:50.134Z,44.75
2022-08-16T08:29:23.043Z,43.97
2022-08-16T08:31:52.980Z,43.79
2022-08-16T08:34:19.689Z,44.54
2022-08-16T08:36:46.250Z,44.52
2022-08-16T08:39:28.937Z,44.50
2022-08-16T08:41:55.806Z,42.96
2022-08-16T08:44:29.272Z,42.15
2022-08-16T08:50:31.777Z,42.58
2022-08-16T08:53:09.877Z,41.51
2022-08-16T09:07:21.208Z,45.54
2022-08-16T09:09:50.425Z,44.97
2022-08-16T09:12:36.591Z,44.39
2022-08-16T09:15:04.833Z,43.31
2022-08-16T09:17:49.274Z,43.24
2022-08-16T09:20:18.527Z,43.86
2022-08-16T09:22:51.367Z,43.99
2022-08-16T09:25:25.835Z,43.52
2022-08-16T09:27:57.742Z,43.45
2022-08-16T09:30:43.393Z,43.23
2022-08-16T09:33:13.882Z,43.03
2022-08-16T09:35:42.713Z,42.12
2022-08-16T09:38:10.379Z,42.38
2022-08-16T09:40:44.015Z,42.47
2022-08-16T09:43:37.788Z,41.67
2022-08-16T09:45:59.458Z,41.67
2022-08-16T09:48:44.364Z,41.04
2022-08-16T09:51:14.005Z,41.20
2022-08-16T09:53:41.242Z,40.44
2022-08-16T09:56:26.525Z,40.72
2022-08-16T09:59:05.018Z,41.15
2022-08-16T10:01:36.351Z,41.08
2022-08-16T10:04:04.066Z,40.69
2022-08-16T10:06:33.959Z,40.16
2022-08-16T10:09:11.196Z,40.47
2022-08-16T10:11:50.568Z,40.00
2022-08-16T10:14:17.660Z,40.49
2022-08-16T10:16:48.949Z,40.05
2022-08-16T10:19:19.297Z,40.41
2022-08-16T10:21:46.118Z,40.07
2022-08-16T10:24:28.335Z,40.47
2022-08-16T10:27:19.578Z,40.65
2022-08-16T10:30:01.329Z,40.59
2022-08-16T10:32:30.674Z,40.55
2022-08-16T10:34:59.633Z,41.11
2022-08-16T10:37:32.707Z,40.78
2022-08-16T10:40:29.232Z,40.13
2022-08-16T10:42:57.058Z,40.36
2022-08-16T10:45:28.164Z,40.24
2022-08-16T10:48:00.698Z,40.37
2022-08-16T10:50:31.167Z,40.16
2022-08-16T10:52:59.358Z,39.89
2022-08-16T10:55:44.159Z,39.88
2022-08-16T10:58:16.852Z,39.52
2022-08-16T11:00:46.023Z,39.55
2022-08-16T11:06:03.239Z,38.74
2022-08-16T11:08:37.038Z,38.84
2022-08-16T11:11:11.766Z,38.83
2022-08-16T11:14:05.939Z,39.02
2022-08-16T11:19:18.972Z,38.83
2022-08-16T11:24:42.679Z,38.46
2022-08-16T11:27:22.844Z,38.48
2022-08-16T11:29:53.545Z,37.81
2022-08-16T11:32:30.040Z,37.71
2022-08-16T11:35:13.954Z,37.39
2022-08-16T11:40:44.117Z,36.76
2022-08-16T11:43:16.879Z,36.30
2022-08-16T11:45:44.084Z,35.56
2022-08-16T11:48:21.910Z,35.31
2022-08-16T11:50:48.526Z,34.26
2022-08-16T11:53:15.149Z,34.20
2022-08-16T11:55:44.185Z,34.49
2022-08-16T11:58:11.872Z,33.80
2022-08-16T12:00:51.805Z,33.94
2022-08-16T12:03:31.401Z,32.41
2022-08-16T12:06:10.586Z,32.27
2022-08-16T12:08:39.275Z,31.79
2022-08-16T12:11:06.029Z,31.20
2022-08-16T12:13:33.684Z,31.54
2022-08-16T12:16:00.222Z,30.93
2022-08-16T12:18:28.003Z,32.85
2022-08-16T12:20:55.102Z,31.73
2022-08-16T12:23:22.085Z,31.61
2022-08-16T12:25:49.154Z,31.45
2022-08-16T12:28:17.586Z,31.42
2022-08-16T12:31:04.150Z,31.09
2022-08-16T12:33:31.021Z,30.46
2022-08-16T12:35:58.415Z,30.34
2022-08-16T12:38:41.584Z,30.80
2022-08-16T12:41:13.837Z,30.28
2022-08-16T12:43:50.912Z,29.65
2022-08-16T12:46:18.679Z,29.17
2022-08-16T12:48:45.172Z,29.53
2022-08-16T12:51:19.886Z,29.27
2022-08-16T12:53:53.707Z,29.45
2022-08-16T12:56:25.319Z,29.08
2022-08-16T12:58:55.333Z,29.65
2022-08-16T13:01:27.460Z,29.27
2022-08-16T13:04:11.264Z,29.22
2022-08-16T13:06:42.513Z,28.48
2022-08-16T13:09:09.657Z,28.66
2022-08-16T13:11:41.376Z,29.17
2022-08-16T13:14:08.195Z,29.03
2022-08-16T13:16:45.767Z,27.26
2022-08-16T13:19:12.319Z,28.46
2022-08-16T13:21:38.914Z,28.35
2022-08-16T13:24:07.835Z,27.72
2022-08-16T13:26:34.379Z,26.50
2022-08-16T13:29:00.879Z,25.68
2022-08-16T13:31:27.680Z,25.07
2022-08-16T13:33:54.566Z,23.91
2022-08-16T13:36:47.931Z,23.48
2022-08-16T13:39:12.528Z,22.58
2022-08-16T13:41:39.035Z,21.40
2022-08-16T13:44:09.194Z,20.63
2022-08-16T13:46:37.149Z,20.50
2022-08-16T13:49:03.993Z,20.29
2022-08-16T13:51:31.031Z,19.96
2022-08-16T13:54:03.320Z,19.32
2022-08-16T13:56:37.953Z,19.47
2022-08-16T13:59:14.028Z,19.31
2022-08-16T14:01:46.770Z,19.45
2022-08-16T14:04:26.158Z,19.66
2022-08-16T14:06:54.724Z,19.33
2022-08-16T14:09:21.573Z,19.55
2022-08-16T14:11:49.549Z,19.52
2022-08-16T14:14:28.286Z,19.16
2022-08-16T14:16:56.383Z,19.07
2022-08-16T14:19:22.961Z,19.02
2022-08-16T14:21:56.584Z,18.57
2022-08-16T14:24:36.529Z,18.73
2022-08-16T14:27:04.388Z,18.80
2022-08-16T14:29:31.844Z,19.19
2022-08-16T14:32:04.953Z,18.68
2022-08-16T14:34:31.472Z,18.72
2022-08-16T14:36:58.012Z,18.34
2022-08-16T14:39:26.518Z,19.21
2022-08-16T14:41:53.370Z,19.27
2022-08-16T14:44:20.455Z,19.00
2022-08-16T14:46:46.957Z,19.73
2022-08-16T14:49:13.465Z,19.12
2022-08-16T14:51:40.388Z,19.02
2022-08-16T14:54:06.889Z,18.93
2022-08-16T14:56:42.760Z,18.87
2022-08-16T14:59:09.821Z,18.45
2022-08-16T15:01:57.821Z,18.66
2022-08-16T15:04:32.608Z,18.17
2022-08-16T15:07:06.867Z,17.92
2022-08-16T15:09:44.533Z,17.72
2022-08-16T15:12:34.179Z,17.66
2022-08-16T15:15:12.438Z,17.38
2022-08-16T15:17:56.170Z,17.80
2022-08-16T15:20:29.235Z,17.85
2022-08-16T15:22:56.156Z,17.97
2022-08-16T15:25:29.347Z,17.16
2022-08-16T15:27:58.228Z,17.46
2022-08-16T15:30:57.316Z,17.31
2022-08-16T15:33:17.692Z,18.02
2022-08-16T15:35:46.127Z,18.20
2022-08-16T15:38:54.602Z,18.74
2022-08-16T15:41:00.941Z,18.17
2022-08-16T15:43:33.921Z,18.26
2022-08-16T15:46:08.771Z,17.76
2022-08-16T15:48:35.288Z,17.99
2022-08-16T15:51:07.970Z,17.00
2022-08-16T15:53:41.809Z,17.49
2022-08-16T15:56:09.835Z,17.59
2022-08-16T15:58:38.890Z,17.35
2022-08-16T16:01:06.273Z,17.63
2022-08-16T16:03:34.644Z,17.47
2022-08-16T16:06:01.534Z,17.15
2022-08-16T16:08:28.609Z,17.05
2022-08-16T16:10:59.878Z,17.54
2022-08-16T16:13:27.480Z,16.98
2022-08-16T16:15:59.671Z,17.41
2022-08-16T16:18:26.389Z,17.37
2022-08-16T16:20:57.292Z,16.18
2022-08-16T16:23:29.535Z,16.92
2022-08-16T16:25:56.570Z,16.68
2022-08-16T16:29:05.200Z,16.17
2022-08-16T16:31:17.627Z,15.77
2022-08-16T16:33:46.968Z,15.76
2022-08-16T16:36:19.432Z,15.37
2022-08-16T16:38:46.631Z,15.37
2022-08-16T16:41:15.964Z,15.59
2022-08-16T16:43:44.407Z,15.73
2022-08-16T16:46:40.940Z,14.46
2022-08-16T16:49:01.212Z,14.82
2022-08-16T16:51:30.142Z,15.69
2022-08-16T16:53:59.153Z,16.08
2022-08-16T16:56:27.525Z,16.43
2022-08-16T16:59:01.632Z,16.73
2022-08-16T17:01:56.570Z,16.90
2022-08-16T17:04:31.871Z,16.45
2022-08-16T17:07:00.780Z,16.99
2022-08-16T17:09:27.308Z,16.60
2022-08-16T17:11:54.927Z,16.52
2022-08-16T17:14:32.868Z,16.77
2022-08-16T17:17:06.369Z,16.29
2022-08-16T17:19:33.328Z,16.33
2022-08-16T17:22:01.082Z,16.47
2022-08-16T17:24:39.397Z,16.44
2022-08-16T17:27:08.315Z,16.43
2022-08-16T17:29:35.091Z,16.69
2022-08-16T17:32:33.537Z,16.96
2022-08-16T17:35:00.452Z,17.64
2022-08-16T17:37:42.476Z,17.62
2022-08-16T17:40:23.338Z,17.81
2022-08-16T17:43:00.742Z,18.28
2022-08-16T17:45:27.856Z,18.56
2022-08-16T17:47:54.456Z,19.07
2022-08-16T17:50:21.142Z,19.28
2022-08-16T17:52:52.880Z,19.21
2022-08-16T17:55:30.320Z,20.00
2022-08-16T17:57:57.904Z,20.40
2022-08-16T18:00:25.913Z,20.54
2022-08-16T18:02:52.707Z,20.86
2022-08-16T18:05:19.651Z,21.03
2022-08-16T18:07:46.858Z,21.38
2022-08-16T18:10:14.697Z,21.72
2022-08-16T18:12:59.715Z,21.85
2022-08-16T18:15:26.385Z,22.21
2022-08-16T18:17:52.988Z,22.51
2022-08-16T18:20:22.401Z,22.62
2022-08-16T18:22:49.143Z,22.54
2022-08-16T18:25:15.812Z,22.90
2022-08-16T18:27:42.329Z,23.84
2022-08-16T18:30:09.028Z,24.01
2022-08-16T18:32:35.519Z,24.56
2022-08-16T18:35:02.155Z,25.21
2022-08-16T18:37:28.661Z,25.96
2022-08-16T18:39:55.228Z,26.15
2022-08-16T18:42:24.639Z,26.62
2022-08-16T18:44:51.160Z,27.17
2022-08-16T18:47:17.678Z,26.54
2022-08-16T18:49:44.214Z,26.79
2022-08-16T18:52:14.830Z,27.19
2022-08-16T18:55:01.912Z,27.56
2022-08-16T18:57:29.712Z,27.60
2022-08-16T18:59:56.229Z,27.75
2022-08-16T19:02:55.993Z,28.06
2022-08-16T19:05:16.721Z,28.23
2022-08-16T19:07:43.253Z,28.38
2022-08-16T19:10:10.039Z,28.35
2022-08-16T19:12:42.178Z,28.35
2022-08-16T19:15:16.798Z,28.17
2022-08-16T19:17:44.608Z,28.19
2022-08-16T19:20:13.016Z,28.33
2022-08-16T19:23:04.657Z,29.24
2022-08-16T19:25:47.351Z,28.86
2022-08-16T19:28:51.775Z,29.59
2022-08-16T19:31:30.707Z,29.43
2022-08-16T19:33:57.862Z,29.17
2022-08-16T19:36:31.125Z,29.52
2022-08-16T19:39:04.255Z,28.83
2022-08-16T19:41:33.099Z,28.88
2022-08-16T19:43:59.659Z,29.26
2022-08-16T19:46:26.215Z,28.95
2022-08-16T19:48:52.733Z,28.56
2022-08-16T19:51:19.231Z,28.52
2022-08-16T19:53:45.744Z,28.55
2022-08-16T19:56:12.228Z,28.84
2022-08-16T19:58:51.013Z,29.06
2022-08-16T20:01:25.228Z,28.46
2022-08-16T20:03:51.731Z,28.39
2022-08-16T20:06:38.116Z,28.87
2022-08-16T20:09:04.758Z,29.01
2022-08-16T20:11:31.257Z,28.63
2022-08-16T20:13:57.767Z,28.47
2022-08-16T20:16:24.286Z,28.34
2022-08-16T20:18:50.764Z,28.33
2022-08-16T20:21:17.288Z,28.85
2022-08-16T20:23:43.774Z,28.71
2022-08-16T20:26:10.295Z,28.39
2022-08-16T20:28:52.182Z,28.66
2022-08-16T20:31:20.455Z,28.69
2022-08-16T20:33:46.980Z,28.26
2022-08-16T20:36:16.180Z,28.41
2022-08-16T20:38:44.835Z,28.45
2022-08-16T20:41:11.905Z,28.91
2022-08-16T20:43:38.515Z,28.71
2022-08-16T20:46:05.049Z,28.72
2022-08-16T20:48:31.638Z,28.26
2022-08-16T20:50:58.126Z,28.65
2022-08-16T20:53:24.634Z,28.64
2022-08-16T20:55:51.166Z,29.07
2022-08-16T20:58:17.715Z,28.52
2022-08-16T21:00:44.286Z,28.30
2022-08-16T21:03:12.665Z,28.58
2022-08-16T21:05:39.630Z,29.01
2022-08-16T21:08:28.741Z,28.80
2022-08-16T21:10:53.467Z,28.97
2022-08-16T21:13:19.966Z,28.88
2022-08-16T21:15:46.479Z,28.34
2022-08-16T21:18:12.987Z,29.58
2022-08-16T21:20:39.618Z,31.50
2022-08-16T21:23:08.400Z,32.10
2022-08-16T21:25:39.651Z,33.47
2022-08-16T21:28:42.047Z,35.37
2022-08-16T21:31:00.441Z,35.07
2022-08-16T21:33:26.935Z,34.61
2022-08-16T21:35:53.449Z,34.83
2022-08-16T21:38:30.346Z,34.24
2022-08-16T21:40:59.016Z,33.99
2022-08-16T21:43:26.530Z,34.53
2022-08-16T21:45:54.903Z,34.80
2022-08-16T21:48:35.002Z,37.68
2022-08-16T21:51:07.861Z,38.17
2022-08-16T21:53:35.444Z,37.86
2022-08-16T21:56:03.725Z,38.19
2022-08-16T21:58:31.266Z,39.43
2022-08-16T22:00:58.923Z,38.96
2022-08-16T22:03:25.493Z,38.84
2022-08-16T22:06:11.597Z,38.55
2022-08-16T22:08:49.840Z,38.66
2022-08-16T22:11:25.430Z,38.70
2022-08-16T22:13:58.512Z,38.08
2022-08-16T22:16:32.453Z,38.03
2022-08-16T22:19:01.515Z,37.51
2022-08-16T22:21:29.568Z,37.55
2022-08-16T22:23:58.703Z,37.42
2022-08-16T22:26:30.607Z,37.15
2022-08-16T22:29:04.740Z,38.04
2022-08-16T22:31:31.720Z,38.84
2022-08-16T22:33:59.125Z,40.87
2022-08-16T22:36:28.541Z,42.75
2022-08-16T22:38:58.561Z,43.84
2022-08-16T22:41:27.332Z,44.43
2022-08-16T22:43:53.874Z,46.61
2022-08-16T22:46:20.609Z,46.79
2022-08-16T22:48:47.450Z,49.60
2022-08-16T22:51:13.954Z,49.68
2022-08-16T22:53:40.461Z,50.37
2022-08-16T22:56:08.471Z,49.81
2022-08-16T22:58:36.341Z,49.25
2022-08-16T23:01:06.774Z,48.76
2022-08-16T23:03:33.465Z,50.45
2022-08-16T23:06:00.551Z,50.88
2022-08-16T23:08:38.725Z,51.71
2022-08-16T23:11:13.042Z,53.72
2022-08-16T23:13:52.652Z,53.91
2022-08-16T23:16:24.003Z,55.84
2022-08-16T23:18:55.846Z,56.29
2022-08-16T23:21:22.948Z,57.08
2022-08-16T23:23:53.141Z,57.25
2022-08-16T23:26:47.264Z,58.52
2022-08-16T23:29:06.293Z,58.96
2022-08-16T23:31:42.490Z,58.92
2022-08-16T23:34:08.994Z,60.04
2022-08-16T23:36:35.580Z,58.70
2022-08-16T23:39:02.067Z,59.59
2022-08-16T23:41:28.600Z,58.89
2022-08-16T23:43:55.119Z,60.63
2022-08-16T23:46:21.610Z,59.77
2022-08-16T23:49:57.018Z,57.65
2022-08-16T23:51:34.684Z,57.02
2022-08-16T23:54:01.264Z,55.67
2022-08-16T23:56:27.882Z,54.47
2022-08-16T23:59:02.963Z,54.27
